sensor_id;sensor_type;location;lat;lon;timestamp;temperature;humidity
47310;DHT22;33046;52.270;6.832;2024-02-15T00:01:46;13.30;99.90
47310;DHT22;33046;52.270;6.832;2024-02-15T00:03:53;13.30;99.90
47310;DHT22;33046;52.270;6.832;2024-02-15T00:06:00;13.30;99.90
47310;DHT22;33046;52.270;6.832;2024-02-15T00:08:07;13.30;99.90
47310;DHT22;33046;52.270;6.832;2024-02-15T00:10:14;13.30;99.90
47310;DHT22;33046;52.270;6.832;2024-02-15T00:12:21;13.30;99.90
47310;DHT22;33046;52.270;6.832;2024-02-15T00:14:29;13.30;99.90
47310;DHT22;33046;52.270;6.832;2024-02-15T00:16:36;13.30;99.90
47310;DHT22;33046;52.270;6.832;2024-02-15T00:18:43;13.30;99.90
47310;DHT22;33046;52.270;6.832;2024-02-15T00:20:50;13.30;99.90
47310;DHT22;33046;52.270;6.832;2024-02-15T00:22:56;13.30;99.90
47310;DHT22;33046;52.270;6.832;2024-02-15T00:25:04;13.30;99.90
47310;DHT22;33046;52.270;6.832;2024-02-15T00:27:11;13.30;99.90
47310;DHT22;33046;52.270;6.832;2024-02-15T00:29:18;13.30;99.90
47310;DHT22;33046;52.270;6.832;2024-02-15T00:31:26;13.30;99.90
47310;DHT22;33046;52.270;6.832;2024-02-15T00:33:33;13.30;99.90
47310;DHT22;33046;52.270;6.832;2024-02-15T00:35:40;13.30;99.90
47310;DHT22;33046;52.270;6.832;2024-02-15T00:37:47;13.30;99.90
47310;DHT22;33046;52.270;6.832;2024-02-15T00:39:54;13.30;99.90
47310;DHT22;33046;52.270;6.832;2024-02-15T00:42:01;13.30;99.90
47310;DHT22;33046;52.270;6.832;2024-02-15T00:44:09;13.30;99.90
47310;DHT22;33046;52.270;6.832;2024-02-15T00:46:16;13.30;99.90
47310;DHT22;33046;52.270;6.832;2024-02-15T00:48:24;13.40;99.90
47310;DHT22;33046;52.270;6.832;2024-02-15T00:50:31;13.30;99.90
47310;DHT22;33046;52.270;6.832;2024-02-15T00:52:38;13.40;99.90
47310;DHT22;33046;52.270;6.832;2024-02-15T00:54:45;13.30;99.90
47310;DHT22;33046;52.270;6.832;2024-02-15T00:56:52;13.30;99.90
47310;DHT22;33046;52.270;6.832;2024-02-15T00:58:59;13.40;99.90
47310;DHT22;33046;52.270;6.832;2024-02-15T01:01:06;13.30;99.90
47310;DHT22;33046;52.270;6.832;2024-02-15T01:03:13;13.30;99.90
47310;DHT22;33046;52.270;6.832;2024-02-15T01:05:21;13.30;99.90
47310;DHT22;33046;52.270;6.832;2024-02-15T01:07:30;13.30;99.90
47310;DHT22;33046;52.270;6.832;2024-02-15T01:09:37;13.30;99.90
47310;DHT22;33046;52.270;6.832;2024-02-15T01:11:44;13.30;99.90
47310;DHT22;33046;52.270;6.832;2024-02-15T01:13:51;13.30;99.90
47310;DHT22;33046;52.270;6.832;2024-02-15T01:15:58;13.40;99.90
47310;DHT22;33046;52.270;6.832;2024-02-15T01:18:05;13.30;99.90
47310;DHT22;33046;52.270;6.832;2024-02-15T01:20:12;13.30;99.90
47310;DHT22;33046;52.270;6.832;2024-02-15T01:22:20;13.40;99.90
47310;DHT22;33046;52.270;6.832;2024-02-15T01:24:27;13.30;99.90
47310;DHT22;33046;52.270;6.832;2024-02-15T01:26:33;13.40;99.90
47310;DHT22;33046;52.270;6.832;2024-02-15T01:28:40;13.30;99.90
47310;DHT22;33046;52.270;6.832;2024-02-15T01:30:47;13.30;99.90
47310;DHT22;33046;52.270;6.832;2024-02-15T01:32:54;13.30;99.90
47310;DHT22;33046;52.270;6.832;2024-02-15T01:35:02;13.40;99.90
47310;DHT22;33046;52.270;6.832;2024-02-15T01:37:09;13.40;99.90
47310;DHT22;33046;52.270;6.832;2024-02-15T01:39:17;13.30;99.90
47310;DHT22;33046;52.270;6.832;2024-02-15T01:41:24;13.30;99.90
47310;DHT22;33046;52.270;6.832;2024-02-15T01:43:31;13.30;99.90
47310;DHT22;33046;52.270;6.832;2024-02-15T01:45:40;13.30;99.90
47310;DHT22;33046;52.270;6.832;2024-02-15T01:47:47;13.30;99.90
47310;DHT22;33046;52.270;6.832;2024-02-15T01:49:54;13.30;99.90
47310;DHT22;33046;52.270;6.832;2024-02-15T01:52:02;13.30;99.90
47310;DHT22;33046;52.270;6.832;2024-02-15T01:54:12;13.40;99.90
47310;DHT22;33046;52.270;6.832;2024-02-15T01:56:21;13.30;99.90
47310;DHT22;33046;52.270;6.832;2024-02-15T01:58:29;13.30;99.90
47310;DHT22;33046;52.270;6.832;2024-02-15T02:00:37;13.30;99.90
47310;DHT22;33046;52.270;6.832;2024-02-15T02:02:45;13.30;99.90
47310;DHT22;33046;52.270;6.832;2024-02-15T02:04:52;13.30;99.90
47310;DHT22;33046;52.270;6.832;2024-02-15T02:06:58;13.40;99.90
47310;DHT22;33046;52.270;6.832;2024-02-15T02:09:05;13.30;99.90
47310;DHT22;33046;52.270;6.832;2024-02-15T02:11:13;13.40;99.90
47310;DHT22;33046;52.270;6.832;2024-02-15T02:13:21;13.40;99.90
47310;DHT22;33046;52.270;6.832;2024-02-15T02:15:28;13.40;99.90
47310;DHT22;33046;52.270;6.832;2024-02-15T02:17:35;13.40;99.90
47310;DHT22;33046;52.270;6.832;2024-02-15T02:19:42;13.30;99.90
47310;DHT22;33046;52.270;6.832;2024-02-15T02:21:49;13.40;99.90
47310;DHT22;33046;52.270;6.832;2024-02-15T02:23:57;13.40;99.90
47310;DHT22;33046;52.270;6.832;2024-02-15T02:26:06;13.40;99.90
47310;DHT22;33046;52.270;6.832;2024-02-15T02:28:13;13.40;99.90
47310;DHT22;33046;52.270;6.832;2024-02-15T02:30:21;13.40;99.90
47310;DHT22;33046;52.270;6.832;2024-02-15T02:32:28;13.40;99.90
47310;DHT22;33046;52.270;6.832;2024-02-15T02:34:35;13.40;99.90
47310;DHT22;33046;52.270;6.832;2024-02-15T02:36:43;13.40;99.90
47310;DHT22;33046;52.270;6.832;2024-02-15T02:38:50;13.40;99.90
47310;DHT22;33046;52.270;6.832;2024-02-15T02:40:57;13.40;99.90
47310;DHT22;33046;52.270;6.832;2024-02-15T02:43:05;13.40;99.90
47310;DHT22;33046;52.270;6.832;2024-02-15T02:45:12;13.40;99.90
47310;DHT22;33046;52.270;6.832;2024-02-15T02:47:19;13.30;99.90
47310;DHT22;33046;52.270;6.832;2024-02-15T02:49:26;13.40;99.90
47310;DHT22;33046;52.270;6.832;2024-02-15T02:51:33;13.40;99.90
47310;DHT22;33046;52.270;6.832;2024-02-15T02:53:39;13.30;99.90
47310;DHT22;33046;52.270;6.832;2024-02-15T02:55:46;13.40;99.90
47310;DHT22;33046;52.270;6.832;2024-02-15T02:57:53;13.40;99.90
47310;DHT22;33046;52.270;6.832;2024-02-15T03:00:02;13.40;99.90
47310;DHT22;33046;52.270;6.832;2024-02-15T03:02:09;13.40;99.90
47310;DHT22;33046;52.270;6.832;2024-02-15T03:04:16;13.40;99.90
47310;DHT22;33046;52.270;6.832;2024-02-15T03:06:23;13.40;99.90
47310;DHT22;33046;52.270;6.832;2024-02-15T03:08:29;13.40;99.90
47310;DHT22;33046;52.270;6.832;2024-02-15T03:10:36;13.40;99.90
47310;DHT22;33046;52.270;6.832;2024-02-15T03:12:43;13.40;99.90
47310;DHT22;33046;52.270;6.832;2024-02-15T03:14:50;13.40;99.90
47310;DHT22;33046;52.270;6.832;2024-02-15T03:16:59;13.40;99.90
47310;DHT22;33046;52.270;6.832;2024-02-15T03:19:05;13.40;99.90
47310;DHT22;33046;52.270;6.832;2024-02-15T03:21:12;13.40;99.90
47310;DHT22;33046;52.270;6.832;2024-02-15T03:23:19;13.40;99.90
47310;DHT22;33046;52.270;6.832;2024-02-15T03:25:27;13.40;99.90
47310;DHT22;33046;52.270;6.832;2024-02-15T03:27:36;13.40;99.90
47310;DHT22;33046;52.270;6.832;2024-02-15T03:29:43;13.40;99.90
47310;DHT22;33046;52.270;6.832;2024-02-15T03:31:50;13.40;99.90
47310;DHT22;33046;52.270;6.832;2024-02-15T03:33:58;13.40;99.90
47310;DHT22;33046;52.270;6.832;2024-02-15T03:36:05;13.40;99.90
47310;DHT22;33046;52.270;6.832;2024-02-15T03:38:12;13.40;99.90
47310;DHT22;33046;52.270;6.832;2024-02-15T03:40:20;13.40;99.90
47310;DHT22;33046;52.270;6.832;2024-02-15T03:42:27;13.40;99.90
47310;DHT22;33046;52.270;6.832;2024-02-15T03:44:34;13.40;99.90
47310;DHT22;33046;52.270;6.832;2024-02-15T03:46:40;13.40;99.90
47310;DHT22;33046;52.270;6.832;2024-02-15T03:48:50;13.40;99.90
47310;DHT22;33046;52.270;6.832;2024-02-15T03:50:58;13.40;99.90
47310;DHT22;33046;52.270;6.832;2024-02-15T03:53:05;13.40;99.90
47310;DHT22;33046;52.270;6.832;2024-02-15T03:55:13;13.40;99.90
47310;DHT22;33046;52.270;6.832;2024-02-15T03:57:19;13.40;99.90
47310;DHT22;33046;52.270;6.832;2024-02-15T03:59:26;13.40;99.90
47310;DHT22;33046;52.270;6.832;2024-02-15T04:01:33;13.40;99.90
47310;DHT22;33046;52.270;6.832;2024-02-15T04:03:40;13.40;99.90
47310;DHT22;33046;52.270;6.832;2024-02-15T04:05:47;13.40;99.90
47310;DHT22;33046;52.270;6.832;2024-02-15T04:07:55;13.40;99.90
47310;DHT22;33046;52.270;6.832;2024-02-15T04:10:04;13.40;99.90
47310;DHT22;33046;52.270;6.832;2024-02-15T04:12:11;13.40;99.90
47310;DHT22;33046;52.270;6.832;2024-02-15T04:14:18;13.40;99.90
47310;DHT22;33046;52.270;6.832;2024-02-15T04:16:25;13.40;99.90
47310;DHT22;33046;52.270;6.832;2024-02-15T04:18:32;13.40;99.90
47310;DHT22;33046;52.270;6.832;2024-02-15T04:20:39;13.40;99.90
47310;DHT22;33046;52.270;6.832;2024-02-15T04:22:46;13.40;99.90
47310;DHT22;33046;52.270;6.832;2024-02-15T04:24:54;13.40;99.90
47310;DHT22;33046;52.270;6.832;2024-02-15T04:27:01;13.40;99.90
47310;DHT22;33046;52.270;6.832;2024-02-15T04:29:08;13.40;99.90
47310;DHT22;33046;52.270;6.832;2024-02-15T04:31:15;13.40;99.90
47310;DHT22;33046;52.270;6.832;2024-02-15T04:33:22;13.40;99.90
47310;DHT22;33046;52.270;6.832;2024-02-15T04:35:28;13.40;99.90
47310;DHT22;33046;52.270;6.832;2024-02-15T04:37:35;13.40;99.90
47310;DHT22;33046;52.270;6.832;2024-02-15T04:39:42;13.40;99.90
47310;DHT22;33046;52.270;6.832;2024-02-15T04:41:51;13.40;99.90
47310;DHT22;33046;52.270;6.832;2024-02-15T04:43:58;13.40;99.90
47310;DHT22;33046;52.270;6.832;2024-02-15T04:46:05;13.40;99.90
47310;DHT22;33046;52.270;6.832;2024-02-15T04:48:12;13.40;99.90
47310;DHT22;33046;52.270;6.832;2024-02-15T04:50:19;13.40;99.90
47310;DHT22;33046;52.270;6.832;2024-02-15T04:52:26;13.40;99.90
47310;DHT22;33046;52.270;6.832;2024-02-15T04:54:33;13.40;99.90
47310;DHT22;33046;52.270;6.832;2024-02-15T04:56:40;13.40;99.90
47310;DHT22;33046;52.270;6.832;2024-02-15T04:58:48;13.30;99.90
47310;DHT22;33046;52.270;6.832;2024-02-15T05:00:55;13.40;99.90
47310;DHT22;33046;52.270;6.832;2024-02-15T05:03:02;13.30;99.90
47310;DHT22;33046;52.270;6.832;2024-02-15T05:05:09;13.30;99.90
47310;DHT22;33046;52.270;6.832;2024-02-15T05:07:16;13.40;99.90
47310;DHT22;33046;52.270;6.832;2024-02-15T05:09:23;13.40;99.90
47310;DHT22;33046;52.270;6.832;2024-02-15T05:11:29;13.40;99.90
47310;DHT22;33046;52.270;6.832;2024-02-15T05:13:36;13.30;99.90
47310;DHT22;33046;52.270;6.832;2024-02-15T05:15:44;13.40;99.90
47310;DHT22;33046;52.270;6.832;2024-02-15T05:17:51;13.40;99.90
47310;DHT22;33046;52.270;6.832;2024-02-15T05:19:58;13.30;99.90
47310;DHT22;33046;52.270;6.832;2024-02-15T05:22:05;13.40;99.90
47310;DHT22;33046;52.270;6.832;2024-02-15T05:24:12;13.30;99.90
47310;DHT22;33046;52.270;6.832;2024-02-15T05:26:19;13.30;99.90
47310;DHT22;33046;52.270;6.832;2024-02-15T05:28:26;13.30;99.90
47310;DHT22;33046;52.270;6.832;2024-02-15T05:30:33;13.30;99.90
47310;DHT22;33046;52.270;6.832;2024-02-15T05:32:41;13.30;99.90
47310;DHT22;33046;52.270;6.832;2024-02-15T05:34:48;13.30;99.90
47310;DHT22;33046;52.270;6.832;2024-02-15T05:36:55;13.30;99.90
47310;DHT22;33046;52.270;6.832;2024-02-15T05:39:02;13.30;99.90
47310;DHT22;33046;52.270;6.832;2024-02-15T05:41:09;13.30;99.90
47310;DHT22;33046;52.270;6.832;2024-02-15T05:43:16;13.30;99.90
47310;DHT22;33046;52.270;6.832;2024-02-15T05:45:30;13.30;99.90
47310;DHT22;33046;52.270;6.832;2024-02-15T05:47:37;13.30;99.90
47310;DHT22;33046;52.270;6.832;2024-02-15T05:49:45;13.30;99.90
47310;DHT22;33046;52.270;6.832;2024-02-15T05:51:52;13.30;99.90
47310;DHT22;33046;52.270;6.832;2024-02-15T05:53:59;13.30;99.90
47310;DHT22;33046;52.270;6.832;2024-02-15T05:56:06;13.30;99.90
47310;DHT22;33046;52.270;6.832;2024-02-15T05:58:13;13.30;99.90
47310;DHT22;33046;52.270;6.832;2024-02-15T06:00:21;13.30;99.90
47310;DHT22;33046;52.270;6.832;2024-02-15T06:02:28;13.30;99.90
47310;DHT22;33046;52.270;6.832;2024-02-15T06:04:35;13.30;99.90
47310;DHT22;33046;52.270;6.832;2024-02-15T06:06:43;13.30;99.90
47310;DHT22;33046;52.270;6.832;2024-02-15T06:08:50;13.30;99.90
47310;DHT22;33046;52.270;6.832;2024-02-15T06:10:57;13.30;99.90
47310;DHT22;33046;52.270;6.832;2024-02-15T06:13:04;13.30;99.90
47310;DHT22;33046;52.270;6.832;2024-02-15T06:15:11;13.30;99.90
47310;DHT22;33046;52.270;6.832;2024-02-15T06:17:18;13.30;99.90
47310;DHT22;33046;52.270;6.832;2024-02-15T06:19:25;13.30;99.90
47310;DHT22;33046;52.270;6.832;2024-02-15T06:21:31;13.30;99.90
47310;DHT22;33046;52.270;6.832;2024-02-15T06:23:40;13.20;99.90
47310;DHT22;33046;52.270;6.832;2024-02-15T06:25:47;13.30;99.90
47310;DHT22;33046;52.270;6.832;2024-02-15T06:27:54;13.30;99.90
47310;DHT22;33046;52.270;6.832;2024-02-15T06:30:01;13.30;99.90
47310;DHT22;33046;52.270;6.832;2024-02-15T06:32:08;13.30;99.90
47310;DHT22;33046;52.270;6.832;2024-02-15T06:34:14;13.30;99.90
47310;DHT22;33046;52.270;6.832;2024-02-15T06:36:21;13.30;99.90
47310;DHT22;33046;52.270;6.832;2024-02-15T06:38:28;13.30;99.90
47310;DHT22;33046;52.270;6.832;2024-02-15T06:40:36;13.30;99.90
47310;DHT22;33046;52.270;6.832;2024-02-15T06:42:43;13.30;99.90
47310;DHT22;33046;52.270;6.832;2024-02-15T06:44:50;13.30;99.90
47310;DHT22;33046;52.270;6.832;2024-02-15T06:46:57;13.30;99.90
47310;DHT22;33046;52.270;6.832;2024-02-15T06:49:04;13.30;99.90
47310;DHT22;33046;52.270;6.832;2024-02-15T06:51:12;13.30;99.90
47310;DHT22;33046;52.270;6.832;2024-02-15T06:53:19;13.30;99.90
47310;DHT22;33046;52.270;6.832;2024-02-15T06:55:26;13.30;99.90
47310;DHT22;33046;52.270;6.832;2024-02-15T06:57:34;13.30;99.90
47310;DHT22;33046;52.270;6.832;2024-02-15T06:59:41;13.30;99.90
47310;DHT22;33046;52.270;6.832;2024-02-15T07:01:48;13.30;99.90
47310;DHT22;33046;52.270;6.832;2024-02-15T07:03:55;13.30;99.90
47310;DHT22;33046;52.270;6.832;2024-02-15T07:06:03;13.30;99.90
47310;DHT22;33046;52.270;6.832;2024-02-15T07:08:10;13.30;99.90
47310;DHT22;33046;52.270;6.832;2024-02-15T07:10:17;13.30;99.90
47310;DHT22;33046;52.270;6.832;2024-02-15T07:12:24;13.30;99.90
47310;DHT22;33046;52.270;6.832;2024-02-15T07:14:32;13.30;99.90
47310;DHT22;33046;52.270;6.832;2024-02-15T07:16:39;13.30;99.90
47310;DHT22;33046;52.270;6.832;2024-02-15T07:18:46;13.30;99.90
47310;DHT22;33046;52.270;6.832;2024-02-15T07:20:53;13.30;99.90
47310;DHT22;33046;52.270;6.832;2024-02-15T07:23:00;13.30;99.90
47310;DHT22;33046;52.270;6.832;2024-02-15T07:25:07;13.30;99.90
47310;DHT22;33046;52.270;6.832;2024-02-15T07:27:14;13.30;99.90
47310;DHT22;33046;52.270;6.832;2024-02-15T07:29:21;13.30;99.90
47310;DHT22;33046;52.270;6.832;2024-02-15T07:31:29;13.30;99.90
47310;DHT22;33046;52.270;6.832;2024-02-15T07:33:36;13.30;99.90
47310;DHT22;33046;52.270;6.832;2024-02-15T07:35:43;13.30;99.90
47310;DHT22;33046;52.270;6.832;2024-02-15T07:37:51;13.30;99.90
47310;DHT22;33046;52.270;6.832;2024-02-15T07:39:58;13.30;99.90
47310;DHT22;33046;52.270;6.832;2024-02-15T07:42:05;13.30;99.90
47310;DHT22;33046;52.270;6.832;2024-02-15T07:44:12;13.30;99.90
47310;DHT22;33046;52.270;6.832;2024-02-15T07:46:19;13.30;99.90
47310;DHT22;33046;52.270;6.832;2024-02-15T07:48:27;13.30;99.90
47310;DHT22;33046;52.270;6.832;2024-02-15T07:50:34;13.30;99.90
47310;DHT22;33046;52.270;6.832;2024-02-15T07:52:41;13.30;99.90
47310;DHT22;33046;52.270;6.832;2024-02-15T07:54:48;13.30;99.90
47310;DHT22;33046;52.270;6.832;2024-02-15T07:56:55;13.40;99.90
47310;DHT22;33046;52.270;6.832;2024-02-15T07:59:02;13.30;99.90
47310;DHT22;33046;52.270;6.832;2024-02-15T08:01:08;13.30;99.90
47310;DHT22;33046;52.270;6.832;2024-02-15T08:03:15;13.30;99.90
47310;DHT22;33046;52.270;6.832;2024-02-15T08:05:23;13.40;99.90
47310;DHT22;33046;52.270;6.832;2024-02-15T08:07:30;13.40;99.90
47310;DHT22;33046;52.270;6.832;2024-02-15T08:09:37;13.40;99.90
47310;DHT22;33046;52.270;6.832;2024-02-15T08:11:46;13.40;99.90
47310;DHT22;33046;52.270;6.832;2024-02-15T08:13:53;13.40;99.90
47310;DHT22;33046;52.270;6.832;2024-02-15T08:15:59;13.40;99.90
47310;DHT22;33046;52.270;6.832;2024-02-15T08:18:06;13.40;99.90
47310;DHT22;33046;52.270;6.832;2024-02-15T08:20:14;13.40;99.90
47310;DHT22;33046;52.270;6.832;2024-02-15T08:22:22;13.40;99.90
47310;DHT22;33046;52.270;6.832;2024-02-15T08:24:29;13.40;99.90
47310;DHT22;33046;52.270;6.832;2024-02-15T08:26:36;13.40;99.90
47310;DHT22;33046;52.270;6.832;2024-02-15T08:28:43;13.40;99.90
47310;DHT22;33046;52.270;6.832;2024-02-15T08:30:52;13.40;99.90
47310;DHT22;33046;52.270;6.832;2024-02-15T08:32:58;13.40;99.90
47310;DHT22;33046;52.270;6.832;2024-02-15T08:35:06;13.40;99.90
47310;DHT22;33046;52.270;6.832;2024-02-15T08:37:13;13.40;99.90
47310;DHT22;33046;52.270;6.832;2024-02-15T08:39:21;13.50;99.90
47310;DHT22;33046;52.270;6.832;2024-02-15T08:41:28;13.40;99.90
47310;DHT22;33046;52.270;6.832;2024-02-15T08:43:35;13.50;99.90
47310;DHT22;33046;52.270;6.832;2024-02-15T08:45:42;13.50;99.90
47310;DHT22;33046;52.270;6.832;2024-02-15T08:47:49;13.50;99.90
47310;DHT22;33046;52.270;6.832;2024-02-15T08:49:56;13.40;99.90
47310;DHT22;33046;52.270;6.832;2024-02-15T08:52:03;13.50;99.90
47310;DHT22;33046;52.270;6.832;2024-02-15T08:54:10;13.40;99.90
47310;DHT22;33046;52.270;6.832;2024-02-15T08:56:18;13.40;99.90
47310;DHT22;33046;52.270;6.832;2024-02-15T08:58:25;13.50;99.90
47310;DHT22;33046;52.270;6.832;2024-02-15T09:00:32;13.40;99.90
47310;DHT22;33046;52.270;6.832;2024-02-15T09:02:39;13.50;99.90
47310;DHT22;33046;52.270;6.832;2024-02-15T09:04:45;13.40;99.90
47310;DHT22;33046;52.270;6.832;2024-02-15T09:06:52;13.50;99.90
47310;DHT22;33046;52.270;6.832;2024-02-15T09:08:59;13.50;99.90
47310;DHT22;33046;52.270;6.832;2024-02-15T09:11:06;13.50;99.90
47310;DHT22;33046;52.270;6.832;2024-02-15T09:13:15;13.50;99.90
47310;DHT22;33046;52.270;6.832;2024-02-15T09:15:22;13.40;99.90
47310;DHT22;33046;52.270;6.832;2024-02-15T09:17:29;13.40;99.90
47310;DHT22;33046;52.270;6.832;2024-02-15T09:19:36;13.40;99.90
47310;DHT22;33046;52.270;6.832;2024-02-15T09:21:43;13.50;99.90
47310;DHT22;33046;52.270;6.832;2024-02-15T09:23:50;13.50;99.90
47310;DHT22;33046;52.270;6.832;2024-02-15T09:25:56;13.50;99.90
47310;DHT22;33046;52.270;6.832;2024-02-15T09:28:04;13.50;99.90
47310;DHT22;33046;52.270;6.832;2024-02-15T09:30:13;13.50;99.90
47310;DHT22;33046;52.270;6.832;2024-02-15T09:32:20;13.50;99.90
47310;DHT22;33046;52.270;6.832;2024-02-15T09:34:27;13.50;99.90
47310;DHT22;33046;52.270;6.832;2024-02-15T09:36:34;13.50;99.90
47310;DHT22;33046;52.270;6.832;2024-02-15T09:38:41;13.50;99.90
47310;DHT22;33046;52.270;6.832;2024-02-15T09:40:48;13.50;99.90
47310;DHT22;33046;52.270;6.832;2024-02-15T09:42:55;13.50;99.90
47310;DHT22;33046;52.270;6.832;2024-02-15T09:45:03;13.50;99.90
47310;DHT22;33046;52.270;6.832;2024-02-15T09:47:12;13.40;99.90
47310;DHT22;33046;52.270;6.832;2024-02-15T09:49:19;13.50;99.90
47310;DHT22;33046;52.270;6.832;2024-02-15T09:51:26;13.50;99.90
47310;DHT22;33046;52.270;6.832;2024-02-15T09:53:33;13.40;99.90
47310;DHT22;33046;52.270;6.832;2024-02-15T09:55:40;13.40;99.90
47310;DHT22;33046;52.270;6.832;2024-02-15T09:57:48;13.50;99.90
47310;DHT22;33046;52.270;6.832;2024-02-15T09:59:57;13.50;99.90
47310;DHT22;33046;52.270;6.832;2024-02-15T10:02:04;13.40;99.90
47310;DHT22;33046;52.270;6.832;2024-02-15T10:04:13;13.50;99.90
47310;DHT22;33046;52.270;6.832;2024-02-15T10:06:20;13.40;99.90
47310;DHT22;33046;52.270;6.832;2024-02-15T10:08:27;13.50;99.90
47310;DHT22;33046;52.270;6.832;2024-02-15T10:10:35;13.50;99.90
47310;DHT22;33046;52.270;6.832;2024-02-15T10:12:42;13.50;99.90
47310;DHT22;33046;52.270;6.832;2024-02-15T10:14:50;13.50;99.90
47310;DHT22;33046;52.270;6.832;2024-02-15T10:17:05;13.50;99.90
47310;DHT22;33046;52.270;6.832;2024-02-15T10:19:14;13.50;99.90
47310;DHT22;33046;52.270;6.832;2024-02-15T10:21:25;13.50;99.90
47310;DHT22;33046;52.270;6.832;2024-02-15T10:23:31;13.50;99.90
47310;DHT22;33046;52.270;6.832;2024-02-15T10:25:39;13.60;99.90
47310;DHT22;33046;52.270;6.832;2024-02-15T10:27:46;13.60;99.90
47310;DHT22;33046;52.270;6.832;2024-02-15T10:29:53;13.60;99.90
47310;DHT22;33046;52.270;6.832;2024-02-15T10:32:03;13.60;99.90
47310;DHT22;33046;52.270;6.832;2024-02-15T10:34:15;13.60;99.90
47310;DHT22;33046;52.270;6.832;2024-02-15T10:36:24;13.70;99.90
47310;DHT22;33046;52.270;6.832;2024-02-15T10:38:30;13.70;99.90
47310;DHT22;33046;52.270;6.832;2024-02-15T10:40:38;13.70;99.90
47310;DHT22;33046;52.270;6.832;2024-02-15T10:42:46;13.70;99.90
47310;DHT22;33046;52.270;6.832;2024-02-15T10:44:53;13.70;99.90
47310;DHT22;33046;52.270;6.832;2024-02-15T10:47:00;13.80;99.90
47310;DHT22;33046;52.270;6.832;2024-02-15T10:49:07;13.70;99.90
47310;DHT22;33046;52.270;6.832;2024-02-15T10:51:16;13.80;99.90
47310;DHT22;33046;52.270;6.832;2024-02-15T10:53:26;13.80;99.90
47310;DHT22;33046;52.270;6.832;2024-02-15T10:55:37;13.80;99.90
47310;DHT22;33046;52.270;6.832;2024-02-15T10:57:46;13.90;99.90
47310;DHT22;33046;52.270;6.832;2024-02-15T10:59:56;13.90;99.90
47310;DHT22;33046;52.270;6.832;2024-02-15T11:04:36;13.90;99.90
47310;DHT22;33046;52.270;6.832;2024-02-15T11:06:45;14.00;99.90
47310;DHT22;33046;52.270;6.832;2024-02-15T11:08:52;14.00;99.90
47310;DHT22;33046;52.270;6.832;2024-02-15T11:10:59;14.00;99.90
47310;DHT22;33046;52.270;6.832;2024-02-15T11:13:06;14.00;99.90
47310;DHT22;33046;52.270;6.832;2024-02-15T11:15:40;14.00;99.90
47310;DHT22;33046;52.270;6.832;2024-02-15T11:17:50;14.00;99.90
47310;DHT22;33046;52.270;6.832;2024-02-15T11:19:57;14.00;99.90
47310;DHT22;33046;52.270;6.832;2024-02-15T11:22:09;14.10;99.90
47310;DHT22;33046;52.270;6.832;2024-02-15T11:24:26;14.00;99.90
47310;DHT22;33046;52.270;6.832;2024-02-15T11:26:45;14.10;99.90
47310;DHT22;33046;52.270;6.832;2024-02-15T11:28:52;14.10;99.90
47310;DHT22;33046;52.270;6.832;2024-02-15T11:30:59;14.10;99.90
47310;DHT22;33046;52.270;6.832;2024-02-15T11:33:25;14.10;99.90
47310;DHT22;33046;52.270;6.832;2024-02-15T11:35:32;14.10;99.90
47310;DHT22;33046;52.270;6.832;2024-02-15T11:37:56;14.10;99.90
47310;DHT22;33046;52.270;6.832;2024-02-15T11:40:04;14.20;99.90
47310;DHT22;33046;52.270;6.832;2024-02-15T11:42:28;14.20;99.90
47310;DHT22;33046;52.270;6.832;2024-02-15T11:44:35;14.20;99.90
47310;DHT22;33046;52.270;6.832;2024-02-15T11:46:42;14.20;99.90
47310;DHT22;33046;52.270;6.832;2024-02-15T11:48:49;14.20;99.90
47310;DHT22;33046;52.270;6.832;2024-02-15T11:50:56;14.20;99.90
47310;DHT22;33046;52.270;6.832;2024-02-15T11:53:05;14.20;99.90
47310;DHT22;33046;52.270;6.832;2024-02-15T11:55:12;14.30;99.90
47310;DHT22;33046;52.270;6.832;2024-02-15T11:57:19;14.30;99.90
47310;DHT22;33046;52.270;6.832;2024-02-15T11:59:26;14.30;99.90
47310;DHT22;33046;52.270;6.832;2024-02-15T12:01:33;14.30;99.90
47310;DHT22;33046;52.270;6.832;2024-02-15T12:03:40;14.40;99.90
47310;DHT22;33046;52.270;6.832;2024-02-15T12:05:50;14.40;99.90
47310;DHT22;33046;52.270;6.832;2024-02-15T12:07:57;14.40;99.90
47310;DHT22;33046;52.270;6.832;2024-02-15T12:10:06;14.40;99.90
47310;DHT22;33046;52.270;6.832;2024-02-15T12:12:13;14.40;99.90
47310;DHT22;33046;52.270;6.832;2024-02-15T12:14:19;14.40;99.90
47310;DHT22;33046;52.270;6.832;2024-02-15T12:16:26;14.50;99.90
47310;DHT22;33046;52.270;6.832;2024-02-15T12:18:33;14.50;99.90
47310;DHT22;33046;52.270;6.832;2024-02-15T12:20:40;14.50;99.90
47310;DHT22;33046;52.270;6.832;2024-02-15T12:22:47;14.60;99.90
47310;DHT22;33046;52.270;6.832;2024-02-15T12:24:55;14.60;99.90
47310;DHT22;33046;52.270;6.832;2024-02-15T12:27:04;14.60;99.90
47310;DHT22;33046;52.270;6.832;2024-02-15T12:29:11;14.60;99.90
47310;DHT22;33046;52.270;6.832;2024-02-15T12:31:23;14.70;99.90
47310;DHT22;33046;52.270;6.832;2024-02-15T12:33:30;14.70;99.90
47310;DHT22;33046;52.270;6.832;2024-02-15T12:35:37;14.80;99.90
47310;DHT22;33046;52.270;6.832;2024-02-15T12:37:44;14.80;99.90
47310;DHT22;33046;52.270;6.832;2024-02-15T12:39:51;14.80;99.90
47310;DHT22;33046;52.270;6.832;2024-02-15T12:41:58;14.80;99.90
47310;DHT22;33046;52.270;6.832;2024-02-15T12:44:06;14.90;99.90
47310;DHT22;33046;52.270;6.832;2024-02-15T12:46:18;14.90;99.90
47310;DHT22;33046;52.270;6.832;2024-02-15T12:48:25;14.90;99.90
47310;DHT22;33046;52.270;6.832;2024-02-15T12:50:32;14.90;99.90
47310;DHT22;33046;52.270;6.832;2024-02-15T12:52:39;14.90;99.90
47310;DHT22;33046;52.270;6.832;2024-02-15T12:54:46;15.00;99.90
47310;DHT22;33046;52.270;6.832;2024-02-15T12:57:07;15.00;99.90
47310;DHT22;33046;52.270;6.832;2024-02-15T12:59:16;15.00;99.90
47310;DHT22;33046;52.270;6.832;2024-02-15T13:01:23;15.00;99.90
47310;DHT22;33046;52.270;6.832;2024-02-15T13:03:30;15.10;99.90
47310;DHT22;33046;52.270;6.832;2024-02-15T13:05:37;15.10;99.90
47310;DHT22;33046;52.270;6.832;2024-02-15T13:07:46;15.10;99.90
47310;DHT22;33046;52.270;6.832;2024-02-15T13:09:53;15.20;99.90
47310;DHT22;33046;52.270;6.832;2024-02-15T13:12:00;15.20;99.90
47310;DHT22;33046;52.270;6.832;2024-02-15T13:14:07;15.30;99.90
47310;DHT22;33046;52.270;6.832;2024-02-15T13:16:15;15.20;99.90
47310;DHT22;33046;52.270;6.832;2024-02-15T13:18:22;15.30;99.90
47310;DHT22;33046;52.270;6.832;2024-02-15T13:20:29;15.30;99.90
47310;DHT22;33046;52.270;6.832;2024-02-15T13:22:35;15.30;99.90
47310;DHT22;33046;52.270;6.832;2024-02-15T13:24:42;15.30;99.90
47310;DHT22;33046;52.270;6.832;2024-02-15T13:26:49;15.40;99.90
47310;DHT22;33046;52.270;6.832;2024-02-15T13:28:56;15.40;99.90